Time;durP1;ratioP1;P1;durP2;ratioP2;P2;SDS_P1;SDS_P2;PMS_P1;PMS_P2;Temp;Humidity;BMP_temperature;BMP_pressure;BME280_temperature;BME280_humidity;BME280_pressure;Samples;Min_cycle;Max_cycle;Signal;HPM_P1;HPM_P2
2021/09/07 00:00:19;;;;;;;23.43;16.83;;;15.70;99.90;;;;;;5052091;28;20174;-67
2021/09/07 00:02:44;;;;;;;19.27;15.17;;;15.70;99.90;;;;;;5052428;28;20175;-67
2021/09/07 00:05:11;;;;;;;15.90;14.13;;;15.70;99.90;;;;;;5052461;28;20575;-67
2021/09/07 00:07:37;;;;;;;21.90;15.87;;;15.70;99.90;;;;;;5050902;28;20178;-66
2021/09/07 00:10:11;;;;;;;19.10;14.43;;;15.70;99.90;;;;;;5069831;28;20186;-66
2021/09/07 00:12:37;;;;;;;19.43;14.17;;;15.70;99.90;;;;;;5072208;28;20537;-67
2021/09/07 00:15:04;;;;;;;20.37;15.30;;;15.70;99.90;;;;;;5054548;28;20606;-66
2021/09/07 00:17:30;;;;;;;25.30;16.53;;;15.60;99.90;;;;;;5052073;28;20163;-66
2021/09/07 00:19:55;;;;;;;19.97;15.37;;;15.60;99.90;;;;;;5067484;28;20193;-66
2021/09/07 00:22:21;;;;;;;17.90;14.80;;;15.60;99.90;;;;;;5072147;28;20178;-66
2021/09/07 00:24:47;;;;;;;21.50;16.00;;;15.60;99.90;;;;;;5057466;28;20194;-66
2021/09/07 00:27:12;;;;;;;17.73;15.80;;;15.60;99.90;;;;;;5051877;28;20546;-66
2021/09/07 00:29:38;;;;;;;17.47;14.40;;;15.70;99.90;;;;;;5063658;28;20209;-67
2021/09/07 00:32:04;;;;;;;19.50;14.97;;;15.70;99.90;;;;;;5063797;28;20182;-67
2021/09/07 00:34:30;;;;;;;20.27;15.30;;;15.80;99.90;;;;;;5051664;28;20702;-67
2021/09/07 00:36:56;;;;;;;17.73;14.20;;;15.90;99.90;;;;;;5057870;28;20227;-66
2021/09/07 00:39:22;;;;;;;15.70;14.10;;;15.90;99.90;;;;;;5071505;28;20174;-65
2021/09/07 00:41:47;;;;;;;17.87;14.93;;;16.00;99.90;;;;;;5067070;28;20174;-67
2021/09/07 00:44:15;;;;;;;17.30;14.03;;;16.00;99.90;;;;;;5051739;28;20195;-67
2021/09/07 00:46:41;;;;;;;15.33;13.73;;;16.10;99.90;;;;;;5054380;28;20576;-67
2021/09/07 00:49:07;;;;;;;18.47;14.50;;;16.10;99.90;;;;;;5071965;28;20182;-66
2021/09/07 00:51:34;;;;;;;21.70;17.00;;;16.10;99.90;;;;;;5069509;28;20181;-66
2021/09/07 00:54:00;;;;;;;19.47;14.97;;;16.10;99.90;;;;;;5050999;28;20203;-67
2021/09/07 00:56:27;;;;;;;21.03;15.57;;;16.10;99.90;;;;;;5063800;28;20178;-67
2021/09/07 00:58:53;;;;;;;20.13;14.70;;;16.10;99.90;;;;;;5071598;28;20269;-67
2021/09/07 01:01:19;;;;;;;19.33;13.23;;;16.00;99.90;;;;;;5067332;28;20184;-66
2021/09/07 01:03:44;;;;;;;20.57;14.97;;;16.00;99.90;;;;;;5071225;28;20202;-67
2021/09/07 01:06:10;;;;;;;18.83;14.90;;;15.90;99.90;;;;;;5057561;28;20644;-67
2021/09/07 01:08:37;;;;;;;21.60;14.37;;;15.90;99.90;;;;;;5051434;28;20266;-68
2021/09/07 01:11:03;;;;;;;20.43;14.53;;;15.90;99.90;;;;;;5063298;28;20185;-66
2021/09/07 01:13:29;;;;;;;20.83;15.97;;;15.80;99.90;;;;;;5069732;28;20209;-66
2021/09/07 01:15:55;;;;;;;20.80;16.73;;;15.80;99.90;;;;;;5060699;28;20175;-66
2021/09/07 01:18:20;;;;;;;19.60;16.33;;;15.70;99.90;;;;;;5051260;28;20182;-66
2021/09/07 01:20:46;;;;;;;18.70;15.47;;;15.70;99.90;;;;;;5059479;28;20209;-66
2021/09/07 01:23:11;;;;;;;21.07;15.87;;;15.70;99.90;;;;;;5071257;28;20181;-66
2021/09/07 01:25:37;;;;;;;19.60;15.80;;;15.60;99.90;;;;;;5063838;28;20190;-66
2021/09/07 01:28:03;;;;;;;20.23;14.93;;;15.50;99.90;;;;;;5053428;28;20667;-67
2021/09/07 01:30:31;;;;;;;19.63;14.17;;;15.40;99.90;;;;;;5070886;28;20508;-66
2021/09/07 01:32:59;;;;;;;20.80;15.57;;;15.30;99.90;;;;;;5069820;28;20202;-66
2021/09/07 01:35:24;;;;;;;18.30;14.57;;;15.20;99.90;;;;;;5051001;28;20202;-66
2021/09/07 01:37:50;;;;;;;22.70;15.47;;;15.20;99.90;;;;;;5051273;28;20679;-66
2021/09/07 01:40:15;;;;;;;21.30;15.43;;;15.10;99.90;;;;;;5068673;28;20189;-66
2021/09/07 01:42:41;;;;;;;18.67;15.47;;;15.10;99.90;;;;;;5071095;28;20186;-66
2021/09/07 01:45:09;;;;;;;20.10;16.20;;;15.10;99.90;;;;;;5052857;28;20213;-66
2021/09/07 01:47:40;;;;;;;21.53;15.27;;;15.10;99.90;;;;;;5050848;28;20178;-66
2021/09/07 01:50:07;;;;;;;19.03;15.93;;;15.00;99.90;;;;;;5067771;28;20178;-67
2021/09/07 01:52:33;;;;;;;23.53;16.53;;;15.00;99.90;;;;;;5071208;28;20227;-67
2021/09/07 01:54:59;;;;;;;19.53;16.00;;;14.90;99.90;;;;;;5055233;28;20245;-66
2021/09/07 01:57:24;;;;;;;21.37;17.30;;;14.90;99.90;;;;;;5060720;28;20178;-66
2021/09/07 01:59:50;;;;;;;22.53;16.23;;;14.90;99.90;;;;;;5070566;28;20236;-66
2021/09/07 02:02:15;;;;;;;22.50;15.60;;;14.80;99.90;;;;;;5061474;28;20201;-66
2021/09/07 02:04:45;;;;;;;19.30;15.03;;;14.80;99.90;;;;;;5051918;28;20614;-66
2021/09/07 02:07:10;;;;;;;16.60;14.50;;;14.70;99.90;;;;;;5062267;28;20267;-66
2021/09/07 02:09:36;;;;;;;20.43;15.67;;;14.70;99.90;;;;;;5074022;28;20679;-66
2021/09/07 02:12:02;;;;;;;21.70;15.47;;;14.70;99.90;;;;;;5068291;28;20175;-66
2021/09/07 02:14:27;;;;;;;19.80;15.73;;;14.60;99.90;;;;;;5054393;28;20197;-65
2021/09/07 02:16:53;;;;;;;20.50;16.17;;;14.60;99.90;;;;;;5058314;28;20201;-65
2021/09/07 02:19:18;;;;;;;17.73;14.70;;;14.60;99.90;;;;;;5074098;28;20531;-67
2021/09/07 02:21:44;;;;;;;19.67;15.40;;;14.50;99.90;;;;;;5071817;28;20192;-67
2021/09/07 02:24:10;;;;;;;23.93;15.90;;;14.60;99.90;;;;;;5061233;28;20202;-67
2021/09/07 02:26:35;;;;;;;22.57;16.50;;;14.50;99.90;;;;;;5073655;28;20185;-67
2021/09/07 02:29:01;;;;;;;23.20;17.50;;;14.50;99.90;;;;;;5054147;28;20175;-68
2021/09/07 02:31:26;;;;;;;22.43;16.63;;;14.50;99.90;;;;;;5053743;28;20194;-67
2021/09/07 02:33:52;;;;;;;27.77;18.47;;;14.50;99.90;;;;;;5071915;28;20202;-67
2021/09/07 02:36:20;;;;;;;19.93;15.37;;;14.50;99.90;;;;;;5073954;28;20173;-67
2021/09/07 02:38:46;;;;;;;23.27;16.83;;;14.50;99.90;;;;;;5056939;28;20186;-66
2021/09/07 02:41:12;;;;;;;21.87;18.27;;;14.50;99.90;;;;;;5053684;28;20171;-66
2021/09/07 02:43:38;;;;;;;18.87;15.90;;;14.50;99.90;;;;;;5068309;28;20224;-67
2021/09/07 02:46:05;;;;;;;22.37;17.17;;;14.40;99.90;;;;;;5073789;28;20189;-67
2021/09/07 02:48:30;;;;;;;22.07;16.50;;;14.50;99.90;;;;;;5060218;28;20181;-67
2021/09/07 02:50:56;;;;;;;21.70;16.90;;;14.40;99.90;;;;;;5053708;28;20644;-66
2021/09/07 02:53:22;;;;;;;23.00;16.80;;;14.40;99.90;;;;;;5054796;28;20253;-67
2021/09/07 02:55:47;;;;;;;21.77;16.93;;;14.40;99.90;;;;;;5063730;28;20304;-67
2021/09/07 02:58:13;;;;;;;22.50;16.80;;;14.40;99.90;;;;;;5072900;28;20178;-67
2021/09/07 03:00:38;;;;;;;22.57;17.53;;;14.30;99.90;;;;;;5064449;28;20183;-67
2021/09/07 03:03:04;;;;;;;21.90;17.50;;;14.40;99.90;;;;;;5053537;28;20175;-67
2021/09/07 03:05:30;;;;;;;23.43;16.93;;;14.40;99.90;;;;;;5059741;28;20658;-67
2021/09/07 03:07:55;;;;;;;23.10;17.03;;;14.40;99.90;;;;;;5073471;28;20703;-66
2021/09/07 03:10:21;;;;;;;23.37;16.77;;;14.40;99.90;;;;;;5068021;28;20202;-66
2021/09/07 03:12:47;;;;;;;32.40;18.97;;;14.40;99.90;;;;;;5053435;28;20206;-66
2021/09/07 03:15:12;;;;;;;25.23;18.87;;;14.40;99.90;;;;;;5055860;28;20567;-67
2021/09/07 03:17:38;;;;;;;26.67;19.40;;;14.40;99.90;;;;;;5072282;28;20958;-67
2021/09/07 03:20:04;;;;;;;22.80;18.50;;;14.40;99.90;;;;;;5071511;28;20169;-67
2021/09/07 03:22:31;;;;;;;24.70;17.43;;;14.40;99.90;;;;;;5053113;28;20642;-66
2021/09/07 03:24:57;;;;;;;24.17;17.33;;;14.40;99.90;;;;;;5053029;28;20197;-66
2021/09/07 03:27:23;;;;;;;23.33;17.47;;;14.40;99.90;;;;;;5072224;28;20237;-66
2021/09/07 03:29:49;;;;;;;22.57;16.83;;;14.40;99.90;;;;;;5072614;28;20204;-67
2021/09/07 03:32:14;;;;;;;22.17;16.87;;;14.40;99.90;;;;;;5055808;28;20653;-67
2021/09/07 03:34:40;;;;;;;23.57;17.27;;;14.30;99.90;;;;;;5052945;28;20191;-67
2021/09/07 03:37:05;;;;;;;23.67;17.47;;;14.20;99.90;;;;;;5068658;28;20206;-65
2021/09/07 03:39:31;;;;;;;25.90;17.10;;;14.20;99.90;;;;;;5072531;28;20167;-66
2021/09/07 03:41:57;;;;;;;27.60;17.57;;;14.20;99.90;;;;;;5058449;28;20632;-67
2021/09/07 03:44:22;;;;;;;28.73;16.77;;;14.10;99.90;;;;;;5053758;28;20210;-66
2021/09/07 03:46:48;;;;;;;24.87;17.87;;;14.10;99.90;;;;;;5052786;28;20202;-67
2021/09/07 03:49:14;;;;;;;22.87;17.53;;;14.00;99.90;;;;;;5063390;28;20181;-67
2021/09/07 03:51:39;;;;;;;24.30;16.97;;;14.10;99.90;;;;;;5072239;28;20196;-67
2021/09/07 03:54:05;;;;;;;21.53;16.37;;;14.10;99.90;;;;;;5063128;28;20655;-67
2021/09/07 03:56:31;;;;;;;24.53;17.77;;;14.10;99.90;;;;;;5051129;28;20171;-67
2021/09/07 03:58:56;;;;;;;25.17;16.50;;;14.10;99.90;;;;;;5059568;28;20173;-66
2021/09/07 04:01:22;;;;;;;23.90;18.13;;;14.10;99.90;;;;;;5071994;28;20162;-67
2021/09/07 04:03:47;;;;;;;23.70;18.23;;;14.10;99.90;;;;;;5066604;28;20685;-66
2021/09/07 04:06:13;;;;;;;25.00;17.33;;;14.10;99.90;;;;;;5052406;28;20198;-66
2021/09/07 04:08:39;;;;;;;24.37;17.43;;;14.10;99.90;;;;;;5055452;28;20239;-66
2021/09/07 04:11:04;;;;;;;25.30;18.57;;;14.20;99.90;;;;;;5072393;28;20173;-67
2021/09/07 04:13:30;;;;;;;21.20;17.70;;;14.30;99.90;;;;;;5070182;28;20263;-67
2021/09/07 04:15:55;;;;;;;23.67;17.80;;;14.30;99.90;;;;;;5052098;28;20640;-67
2021/09/07 04:18:21;;;;;;;24.10;17.30;;;14.40;99.90;;;;;;5069528;28;20192;-66
2021/09/07 04:20:46;;;;;;;23.53;17.70;;;14.40;99.90;;;;;;5071795;28;20166;-67
2021/09/07 04:23:12;;;;;;;27.63;18.43;;;14.50;99.90;;;;;;5055880;28;20862;-66
2021/09/07 04:25:38;;;;;;;22.97;17.70;;;14.60;99.90;;;;;;5051761;28;20213;-66
2021/09/07 04:28:04;;;;;;;24.57;17.97;;;14.60;99.90;;;;;;5065780;28;20181;-67
2021/09/07 04:30:29;;;;;;;23.87;16.87;;;14.60;99.90;;;;;;5071572;28;20178;-66
2021/09/07 04:32:55;;;;;;;21.23;16.33;;;14.60;99.90;;;;;;5059372;28;20206;-66
2021/09/07 04:35:21;;;;;;;25.70;17.90;;;14.70;99.90;;;;;;5051734;28;20187;-66
2021/09/07 04:37:48;;;;;;;23.23;17.50;;;14.70;99.90;;;;;;5061908;28;20228;-66
2021/09/07 04:40:13;;;;;;;26.63;17.17;;;14.80;99.90;;;;;;5071433;28;20173;-66
2021/09/07 04:42:40;;;;;;;24.33;17.43;;;14.80;99.90;;;;;;5062868;28;20183;-67
2021/09/07 04:45:06;;;;;;;24.47;18.43;;;14.90;99.90;;;;;;5052120;28;20554;-66
2021/09/07 04:47:32;;;;;;;22.90;18.13;;;14.90;99.90;;;;;;5052862;28;20183;-67
2021/09/07 04:49:57;;;;;;;22.97;17.83;;;15.00;99.90;;;;;;5051512;28;20178;-67
2021/09/07 04:52:23;;;;;;;21.43;16.87;;;15.00;99.90;;;;;;5052637;28;20179;-68
2021/09/07 04:54:49;;;;;;;23.57;17.93;;;15.00;99.90;;;;;;5053137;28;20186;-67
2021/09/07 04:57:14;;;;;;;21.27;17.47;;;15.00;99.90;;;;;;5070769;28;20200;-67
2021/09/07 04:59:40;;;;;;;18.47;16.47;;;15.00;99.90;;;;;;5070862;28;20166;-67
2021/09/07 05:02:05;;;;;;;25.80;19.10;;;15.20;99.90;;;;;;5051671;28;20174;-67
2021/09/07 05:04:31;;;;;;;21.23;17.70;;;15.20;99.90;;;;;;5051249;28;20191;-68
2021/09/07 05:06:57;;;;;;;24.10;18.47;;;15.30;99.90;;;;;;5069357;28;20550;-68
2021/09/07 05:09:22;;;;;;;22.53;17.23;;;15.30;99.90;;;;;;5071070;28;20216;-67
2021/09/07 05:11:48;;;;;;;20.40;16.70;;;15.30;99.90;;;;;;5054762;28;20217;-68
2021/09/07 05:14:13;;;;;;;19.70;16.93;;;15.30;99.90;;;;;;5050684;28;20214;-68
2021/09/07 05:16:39;;;;;;;21.70;16.90;;;15.30;99.90;;;;;;5065463;28;20209;-67
2021/09/07 05:19:05;;;;;;;25.23;18.53;;;15.30;99.90;;;;;;5071428;28;20178;-67
2021/09/07 05:21:30;;;;;;;25.50;18.93;;;15.30;99.90;;;;;;5058296;28;20265;-68
2021/09/07 05:23:56;;;;;;;23.50;17.60;;;15.40;99.90;;;;;;5051163;28;20210;-68
2021/09/07 05:26:21;;;;;;;26.10;17.33;;;15.40;99.90;;;;;;5061452;28;20193;-68
2021/09/07 05:28:47;;;;;;;23.13;16.77;;;15.40;99.90;;;;;;5071340;28;20181;-67
2021/09/07 05:31:13;;;;;;;23.83;17.73;;;15.40;99.90;;;;;;5062131;28;20182;-66
2021/09/07 05:33:38;;;;;;;23.77;17.23;;;15.50;99.90;;;;;;5050903;28;20214;-68
2021/09/07 05:36:04;;;;;;;20.77;16.70;;;15.50;99.90;;;;;;5057581;28;20253;-68
2021/09/07 05:38:30;;;;;;;27.20;17.33;;;15.50;99.90;;;;;;5071087;28;20210;-68
2021/09/07 05:40:55;;;;;;;21.23;17.13;;;15.60;99.90;;;;;;5069133;28;20178;-67
2021/09/07 05:43:21;;;;;;;19.03;16.63;;;15.70;99.90;;;;;;5055391;28;20206;-68
2021/09/07 05:45:47;;;;;;;21.60;17.50;;;15.80;99.90;;;;;;5054556;28;20264;-68
2021/09/07 05:48:13;;;;;;;22.03;16.57;;;15.80;99.90;;;;;;5053867;28;20605;-68
2021/09/07 05:50:38;;;;;;;23.43;17.70;;;16.00;99.90;;;;;;5072181;28;20240;-68
2021/09/07 05:53:04;;;;;;;23.27;16.30;;;16.00;99.90;;;;;;5073611;28;20682;-67
2021/09/07 05:55:30;;;;;;;22.33;16.73;;;16.00;99.90;;;;;;5071800;28;20209;-67
2021/09/07 05:57:56;;;;;;;23.27;17.90;;;16.20;99.90;;;;;;5073449;28;20205;-67
2021/09/07 06:00:22;;;;;;;18.53;16.17;;;16.30;99.90;;;;;;5057387;28;20210;-67
2021/09/07 06:02:49;;;;;;;21.80;17.10;;;16.30;99.90;;;;;;5053434;28;20179;-68
2021/09/07 06:05:14;;;;;;;21.60;17.73;;;16.40;99.90;;;;;;5066965;28;20202;-68
2021/09/07 06:07:40;;;;;;;20.63;16.77;;;16.50;99.90;;;;;;5073349;28;20274;-68
2021/09/07 06:10:07;;;;;;;24.10;16.73;;;16.60;99.90;;;;;;5060891;28;20191;-68
2021/09/07 06:12:32;;;;;;;23.47;17.30;;;16.70;99.90;;;;;;5057994;28;20731;-67
2021/09/07 06:14:58;;;;;;;22.37;16.63;;;16.80;99.90;;;;;;5053110;28;20244;-67
2021/09/07 06:17:23;;;;;;;22.40;17.57;;;17.00;99.90;;;;;;5061851;28;20265;-67
2021/09/07 06:19:49;;;;;;;21.23;17.60;;;17.00;99.90;;;;;;5062953;28;20179;-66
2021/09/07 06:22:15;;;;;;;22.43;16.70;;;17.00;99.90;;;;;;5051663;28;20175;-67
2021/09/07 06:24:40;;;;;;;22.40;17.77;;;17.00;99.90;;;;;;5058351;28;20681;-68
2021/09/07 06:27:06;;;;;;;21.17;17.23;;;17.10;99.90;;;;;;5073016;28;20316;-67
2021/09/07 06:29:32;;;;;;;25.43;16.70;;;17.20;99.90;;;;;;5068368;28;20175;-67
2021/09/07 06:31:57;;;;;;;25.27;17.80;;;17.40;99.90;;;;;;5053344;28;20186;-68
2021/09/07 06:34:27;;;;;;;24.83;18.07;;;17.60;99.90;;;;;;5072532;28;20217;-66
2021/09/07 06:36:53;;;;;;;21.80;16.70;;;17.80;99.90;;;;;;5073008;28;20177;-67
2021/09/07 06:39:19;;;;;;;25.40;17.03;;;17.90;99.90;;;;;;5052548;28;20182;-65
2021/09/07 06:41:45;;;;;;;24.17;17.33;;;18.00;99.90;;;;;;5052614;28;20171;-67
2021/09/07 06:44:11;;;;;;;22.07;18.17;;;18.20;99.90;;;;;;5070078;28;20209;-68
2021/09/07 06:46:36;;;;;;;24.47;17.27;;;18.30;99.90;;;;;;5034478;28;1110016;-67
2021/09/07 06:49:02;;;;;;;24.27;17.67;;;18.50;99.90;;;;;;5057682;28;20187;-68
2021/09/07 06:51:28;;;;;;;30.93;17.80;;;18.70;99.90;;;;;;5051863;28;20179;-68
2021/09/07 06:53:53;;;;;;;23.90;18.20;;;18.80;99.90;;;;;;5067386;28;20217;-67
2021/09/07 06:56:19;;;;;;;23.10;18.10;;;18.90;99.90;;;;;;5073555;28;20654;-67
2021/09/07 06:58:44;;;;;;;23.33;17.83;;;18.90;99.90;;;;;;5064743;28;20186;-68
2021/09/07 07:01:10;;;;;;;26.17;19.73;;;19.00;99.90;;;;;;5053075;28;20183;-67
2021/09/07 07:03:36;;;;;;;28.13;20.37;;;19.20;99.90;;;;;;5063465;28;20213;-66
2021/09/07 07:06:01;;;;;;;25.47;19.37;;;19.20;99.90;;;;;;5073064;28;20182;-67
2021/09/07 07:08:27;;;;;;;24.67;19.93;;;19.40;99.90;;;;;;5064492;28;20182;-67
2021/09/07 07:10:52;;;;;;;27.70;20.87;;;19.40;99.90;;;;;;5053209;28;20174;-67
2021/09/07 07:13:18;;;;;;;25.20;19.47;;;19.50;99.90;;;;;;5059506;28;20661;-67
2021/09/07 07:15:44;;;;;;;25.93;21.00;;;19.60;99.90;;;;;;5073180;28;20178;-67
2021/09/07 07:18:09;;;;;;;25.03;19.60;;;19.60;99.90;;;;;;5069012;28;20679;-68
2021/09/07 07:20:35;;;;;;;27.13;20.60;;;19.30;99.90;;;;;;5052974;28;20170;-67
2021/09/07 07:23:00;;;;;;;25.10;20.37;;;19.30;99.90;;;;;;5056025;28;20298;-67
2021/09/07 07:25:26;;;;;;;26.07;20.00;;;19.30;99.90;;;;;;5073105;28;20178;-68
2021/09/07 07:27:52;;;;;;;22.63;19.13;;;19.40;99.90;;;;;;5060269;28;20248;-67
2021/09/07 07:30:17;;;;;;;34.40;21.57;;;19.50;99.90;;;;;;5052531;28;20643;-67
2021/09/07 07:32:43;;;;;;;24.50;20.20;;;19.50;99.90;;;;;;5064623;28;20206;-67
2021/09/07 07:35:09;;;;;;;24.63;20.00;;;19.50;99.90;;;;;;5072716;28;20709;-67
2021/09/07 07:37:34;;;;;;;28.90;20.57;;;19.70;99.90;;;;;;5070942;28;20210;-67
2021/09/07 07:40:00;;;;;;;24.77;19.90;;;19.90;99.90;;;;;;5072384;28;20647;-68
2021/09/07 07:42:26;;;;;;;27.00;20.13;;;20.00;99.90;;;;;;5063654;28;20560;-67
2021/09/07 07:44:52;;;;;;;26.40;20.57;;;20.20;99.90;;;;;;5052673;28;20198;-67
2021/09/07 07:47:17;;;;;;;26.57;19.80;;;20.30;99.90;;;;;;5059124;28;20262;-67
2021/09/07 07:49:43;;;;;;;28.43;20.83;;;20.30;99.90;;;;;;5072514;28;20205;-66
2021/09/07 07:52:09;;;;;;;29.33;21.60;;;20.50;99.90;;;;;;5067180;28;20232;-67
2021/09/07 07:54:34;;;;;;;34.08;21.77;;;20.60;99.90;;;;;;5052723;28;20210;-68
2021/09/07 07:57:00;;;;;;;31.75;22.88;;;20.80;99.90;;;;;;5068484;28;20662;-67
2021/09/07 07:59:26;;;;;;;28.07;20.77;;;20.90;99.90;;;;;;5072014;28;20185;-68
2021/09/07 08:01:53;;;;;;;29.53;22.10;;;20.90;99.90;;;;;;5052768;28;20209;-68
2021/09/07 08:04:19;;;;;;;28.07;20.90;;;20.90;99.90;;;;;;5052117;28;20195;-67
2021/09/07 08:06:45;;;;;;;29.08;21.67;;;21.00;99.90;;;;;;5066632;28;20287;-67
2021/09/07 08:09:10;;;;;;;26.95;20.90;;;21.00;99.90;;;;;;5052294;28;20270;-67
2021/09/07 08:11:38;;;;;;;30.92;21.08;;;21.10;99.90;;;;;;5067038;28;20190;-67
2021/09/07 08:14:05;;;;;;;28.95;20.05;;;21.30;99.90;;;;;;5071800;28;20206;-68
2021/09/07 08:16:31;;;;;;;29.48;20.38;;;21.40;99.90;;;;;;5057186;28;20183;-68
2021/09/07 08:18:56;;;;;;;25.45;18.85;;;21.60;99.90;;;;;;5052096;28;20194;-66
2021/09/07 08:21:24;;;;;;;27.27;19.63;;;21.80;99.90;;;;;;5063942;28;20178;-66
2021/09/07 08:23:50;;;;;;;24.23;18.42;;;22.00;99.90;;;;;;5063233;28;20202;-67
2021/09/07 08:26:15;;;;;;;28.65;19.38;;;22.30;99.90;;;;;;5052126;28;20747;-68
2021/09/07 08:28:41;;;;;;;30.08;19.90;;;22.50;99.90;;;;;;5058084;28;20269;-67
2021/09/07 08:31:07;;;;;;;28.38;19.33;;;22.60;99.90;;;;;;5071459;28;20167;-67
2021/09/07 08:33:32;;;;;;;26.80;19.65;;;22.60;99.90;;;;;;5066282;28;20251;-66
2021/09/07 08:35:58;;;;;;;31.73;19.52;;;22.70;99.90;;;;;;5051602;28;20175;-68
2021/09/07 08:38:24;;;;;;;38.00;20.63;;;22.80;99.90;;;;;;5054472;28;20184;-68
2021/09/07 08:40:51;;;;;;;28.45;19.38;;;23.00;99.90;;;;;;5071623;28;20658;-68
2021/09/07 08:43:20;;;;;;;27.33;19.55;;;23.30;99.90;;;;;;5069979;28;20664;-67
2021/09/07 08:45:51;;;;;;;25.30;19.55;;;23.20;99.90;;;;;;5051567;28;20182;-68
2021/09/07 08:48:16;;;;;;;27.00;20.20;;;23.10;99.90;;;;;;5052757;28;20304;-67
2021/09/07 08:50:43;;;;;;;28.85;19.80;;;23.00;99.90;;;;;;5071357;28;20286;-67
2021/09/07 08:53:08;;;;;;;24.15;19.23;;;23.10;99.90;;;;;;5054668;28;20203;-68
2021/09/07 08:55:34;;;;;;;28.17;21.25;;;23.60;99.90;;;;;;5071255;28;20158;-68
2021/09/07 08:58:00;;;;;;;27.92;19.30;;;23.90;99.90;;;;;;5055670;28;20179;-67
2021/09/07 09:00:27;;;;;;;26.75;19.48;;;24.30;99.90;;;;;;5050829;28;20167;-67
2021/09/07 09:02:53;;;;;;;24.75;19.27;;;24.50;99.90;;;;;;5064451;28;20639;-68
2021/09/07 09:05:27;;;;;;;25.70;19.58;;;24.50;99.90;;;;;;5071204;28;20193;-67
2021/09/07 09:07:53;;;;;;;25.35;19.85;;;24.50;99.90;;;;;;5058273;28;20265;-67
2021/09/07 09:10:20;;;;;;;27.52;19.70;;;24.50;99.90;;;;;;5050813;28;20186;-67
2021/09/07 09:12:46;;;;;;;26.10;19.08;;;24.80;99.90;;;;;;5062118;28;20228;-67
2021/09/07 09:15:17;;;;;;;26.35;18.25;;;25.10;99.90;;;;;;5073293;28;20190;-66
2021/09/07 09:17:42;;;;;;;24.52;17.75;;;25.50;99.90;;;;;;5073674;28;20922;-66
2021/09/07 09:20:16;;;;;;;25.90;19.02;;;26.10;99.90;;;;;;5069359;28;20178;-67
2021/09/07 09:22:50;;;;;;;23.48;17.95;;;26.70;99.90;;;;;;5055186;28;20174;-68
2021/09/07 09:25:24;;;;;;;25.60;18.08;;;27.50;99.90;;;;;;5061123;28;20258;-66
2021/09/07 09:27:50;;;;;;;20.15;16.90;;;28.10;99.90;;;;;;5073744;28;20315;-66
2021/09/07 09:30:16;;;;;;;23.52;18.00;;;28.50;99.90;;;;;;5069034;28;20266;-67
2021/09/07 09:32:52;;;;;;;20.73;17.40;;;28.90;99.90;;;;;;5055027;28;20739;-67
2021/09/07 09:35:18;;;;;;;20.55;17.02;;;29.10;99.90;;;;;;5059963;28;20208;-67
2021/09/07 09:37:57;;;;;;;21.05;17.40;;;29.30;99.90;;;;;;5075027;28;20162;-66
2021/09/07 09:40:23;;;;;;;26.13;19.10;;;29.70;99.90;;;;;;5068182;28;20543;-67
2021/09/07 09:42:49;;;;;;;22.02;17.30;;;29.50;99.90;;;;;;5054910;28;20305;-67
2021/09/07 09:45:16;;;;;;;21.63;19.27;;;29.40;99.90;;;;;;5058886;28;20705;-66
2021/09/07 09:47:44;;;;;;;22.65;17.48;;;29.50;99.90;;;;;;5074886;28;20197;-66
2021/09/07 09:50:13;;;;;;;20.38;17.20;;;29.90;99.90;;;;;;5073972;28;20260;-67
2021/09/07 09:52:43;;;;;;;23.02;16.88;;;30.10;99.90;;;;;;5074573;28;20202;-68
2021/09/07 09:55:11;;;;;;;19.25;15.82;;;30.10;99.90;;;;;;5055604;28;20726;-67
2021/09/07 09:57:38;;;;;;;22.65;15.07;;;30.00;99.90;;;;;;5054488;28;20582;-67
2021/09/07 10:00:09;;;;;;;19.60;16.10;;;30.10;99.90;;;;;;5060089;28;20175;-66
2021/09/07 10:02:35;;;;;;;23.63;16.05;;;30.30;99.90;;;;;;5054456;28;20179;-67
2021/09/07 10:05:01;;;;;;;23.65;16.45;;;30.00;99.90;;;;;;5071101;28;20217;-66
2021/09/07 10:07:27;;;;;;;23.80;16.63;;;29.70;99.90;;;;;;5074326;28;20166;-66
2021/09/07 10:09:56;;;;;;;31.48;16.42;;;29.70;99.90;;;;;;5058519;28;20329;-66
2021/09/07 10:12:36;;;;;;;20.65;17.33;;;29.80;99.90;;;;;;5054218;28;20216;-67
2021/09/07 10:15:17;;;;;;;20.08;15.73;;;29.90;99.90;;;;;;5070150;28;20755;-66
2021/09/07 10:17:49;;;;;;;18.92;15.82;;;30.20;99.90;;;;;;5074195;28;20174;-66
2021/09/07 10:20:55;;;;;;;21.80;16.58;;;30.30;99.90;;;;;;5056499;28;20183;-67
2021/09/07 10:24:16;;;;;;;20.33;15.65;;;30.20;99.90;;;;;;5054519;28;20198;-66
2021/09/07 10:26:42;;;;;;;18.15;15.43;;;30.40;99.90;;;;;;5069424;28;20450;-66
2021/09/07 10:29:10;;;;;;;19.35;15.93;;;30.70;99.90;;;;;;5054274;28;20655;-68
2021/09/07 10:31:50;;;;;;;18.25;14.45;;;30.50;99.90;;;;;;5055193;28;20244;-66
2021/09/07 10:34:20;;;;;;;17.88;13.70;;;30.70;99.90;;;;;;5073917;28;20205;-68
2021/09/07 10:37:00;;;;;;;17.60;15.35;;;30.70;99.90;;;;;;5071685;28;20640;-68
2021/09/07 10:39:32;;;;;;;16.08;13.07;;;30.60;99.90;;;;;;5053658;28;20182;-67
2021/09/07 10:41:59;;;;;;;16.58;14.55;;;30.80;99.90;;;;;;5054777;28;20212;-66
2021/09/07 10:44:31;;;;;;;14.68;13.18;;;30.80;99.90;;;;;;5054021;28;20281;-66
2021/09/07 10:49:36;;;;;;;19.23;12.65;;;31.30;99.90;;;;;;5012221;28;20228;-66
2021/09/07 10:52:04;;;;;;;18.75;14.00;;;31.10;99.90;;;;;;5013518;28;20178;-66
2021/09/07 10:54:31;;;;;;;20.65;13.23;;;30.80;99.90;;;;;;5014000;28;20306;-65
2021/09/07 10:56:59;;;;;;;19.20;13.98;;;31.10;99.90;;;;;;5013530;28;20277;-66
2021/09/07 10:59:47;;;;;;;16.58;14.07;;;31.40;99.90;;;;;;5013434;28;20176;-66
2021/09/07 11:02:36;;;;;;;25.30;13.77;;;31.60;99.90;;;;;;4994090;28;20205;-65
2021/09/07 11:05:07;;;;;;;16.45;14.35;;;31.70;99.90;;;;;;4995182;28;20169;-65
2021/09/07 11:07:35;;;;;;;16.42;13.13;;;31.70;99.90;;;;;;5012748;28;20637;-66
2021/09/07 11:10:01;;;;;;;23.25;14.48;;;31.90;99.90;;;;;;5011347;28;20187;-64
2021/09/07 11:12:30;;;;;;;15.55;13.38;;;32.10;99.90;;;;;;4993489;28;20553;-65
2021/09/07 11:15:11;;;;;;;16.80;12.15;;;32.10;99.90;;;;;;4993074;28;20484;-65
2021/09/07 11:17:52;;;;;;;14.30;12.80;;;32.40;99.90;;;;;;4993776;28;20226;-65
2021/09/07 11:20:20;;;;;;;16.70;12.82;;;32.10;99.90;;;;;;4993933;28;20187;-66
2021/09/07 11:22:46;;;;;;;15.75;13.43;;;31.60;99.90;;;;;;4993971;28;20204;-65
2021/09/07 11:25:17;;;;;;;15.27;12.93;;;31.60;99.90;;;;;;5011460;28;20184;-66
2021/09/07 11:28:01;;;;;;;15.82;13.35;;;31.90;99.90;;;;;;5013271;28;20226;-65
2021/09/07 11:30:41;;;;;;;20.13;13.57;;;32.00;99.90;;;;;;5011415;28;20180;-66
2021/09/07 11:33:08;;;;;;;17.48;12.85;;;32.30;99.90;;;;;;5012954;28;20691;-66
2021/09/07 11:35:40;;;;;;;13.65;11.95;;;32.50;99.90;;;;;;4993359;28;20201;-65
2021/09/07 11:38:09;;;;;;;16.85;11.45;;;32.70;99.90;;;;;;4992792;28;20192;-65
2021/09/07 11:40:40;;;;;;;14.07;12.55;;;32.70;99.90;;;;;;5012427;28;20179;-65
2021/09/07 11:43:05;;;;;;;14.07;12.18;;;32.60;99.90;;;;;;5013334;28;20172;-65
2021/09/07 11:45:33;;;;;;;14.88;11.80;;;32.30;99.90;;;;;;4993908;28;20291;-66
2021/09/07 11:48:01;;;;;;;13.63;12.13;;;32.60;99.90;;;;;;5001381;28;20249;-66
2021/09/07 11:50:34;;;;;;;20.65;12.82;;;32.60;99.90;;;;;;5029795;28;20176;-66
2021/09/07 11:53:02;;;;;;;14.65;13.07;;;32.40;99.90;;;;;;5018426;28;20235;-66
2021/09/07 11:55:48;;;;;;;15.70;13.27;;;32.60;99.90;;;;;;5012504;28;20558;-66
2021/09/07 11:58:36;;;;;;;12.75;11.15;;;33.00;99.90;;;;;;5027853;28;20171;-66
2021/09/07 12:01:17;;;;;;;13.75;11.80;;;32.70;99.90;;;;;;5032097;28;20168;-65
2021/09/07 12:03:44;;;;;;;15.23;13.52;;;32.80;99.90;;;;;;5013290;28;20258;-65
2021/09/07 12:06:12;;;;;;;17.27;13.40;;;32.70;99.90;;;;;;5012875;28;20196;-65
2021/09/07 12:08:48;;;;;;;19.77;13.55;;;33.20;99.90;;;;;;5029993;28;20176;-66
2021/09/07 12:11:31;;;;;;;15.95;14.30;;;33.40;99.90;;;;;;5030365;28;20562;-66
2021/09/07 12:14:08;;;;;;;18.80;16.15;;;33.30;99.90;;;;;;5012321;28;20210;-66
2021/09/07 12:16:49;;;;;;;18.10;14.13;;;33.40;99.90;;;;;;5012768;28;20204;-65
2021/09/07 12:19:21;;;;;;;15.88;14.07;;;33.50;99.90;;;;;;5012214;28;20199;-66
2021/09/07 12:22:03;;;;;;;18.00;14.18;;;33.60;99.90;;;;;;5019492;28;20649;-65
2021/09/07 12:24:29;;;;;;;18.10;15.05;;;33.60;99.90;;;;;;5031772;28;20206;-65
2021/09/07 12:26:54;;;;;;;20.05;13.77;;;33.40;99.90;;;;;;5023971;28;20199;-65
2021/09/07 12:29:20;;;;;;;14.85;13.25;;;33.20;99.90;;;;;;5011894;28;20164;-66